Terminal Aerodrome Forecast
Issued by NWS

Home | Current Version | Previous Version | Graphics & Text | Print | Product List | Glossary On
Versions: 1 2 3 4 5 6 7 8 9 10 11 12 13 14 15 16 17 18 19
000
FTUS43 KMPX 161600 AAA
TAFRWF
TAF AMD
KRWF 161653Z 1617/1712 07012G18KT 4SM -SN BR OVC025
      TEMPO 1617/1620 2SM -RASN BR OVC015
     FM162000 05012G20KT 4SM -RA OVC015
     FM162200 02013G21KT 2SM -SN OVC010
     FM170300 34013G22KT 5SM -SN OVC015
     FM170800 33012G20KT P6SM BKN020=

USA.gov is the U.S. government's official web portal to all federal, state and local government web resources and services.